createdAt,value
2024-04-16T00:02:08.471Z,99092.06
2024-04-16T00:07:15.422Z,99082.31
2024-04-16T00:12:19.702Z,99096.19
2024-04-16T00:17:24.653Z,99094.31
2024-04-16T00:22:32.045Z,99094.09
2024-04-16T00:27:36.338Z,99086.22
2024-04-16T00:32:40.673Z,99074.94
2024-04-16T00:37:47.425Z,99071.47
2024-04-16T00:42:52.872Z,99066.84
2024-04-16T00:47:57.733Z,99075.19
2024-04-16T00:53:04.739Z,99077.53
2024-04-16T00:58:10.293Z,99064.47
2024-04-16T01:03:14.908Z,99063.34
2024-04-16T01:08:22.002Z,99065.81
2024-04-16T01:13:26.293Z,99055.41
2024-04-16T01:18:30.681Z,99049.19
2024-04-16T01:23:37.457Z,99039.41
2024-04-16T01:28:41.845Z,99032.13
2024-04-16T01:33:46.135Z,99018.66
2024-04-16T01:38:52.969Z,99002.66
2024-04-16T01:43:57.235Z,98992.31
2024-04-16T01:49:02.623Z,98996.22
2024-04-16T01:54:09.929Z,98986.41
2024-04-16T01:59:14.223Z,98982.19
2024-04-16T02:04:18.676Z,98998.84
2024-04-16T02:09:25.722Z,98990.59
2024-04-16T02:14:30.234Z,98991.88
2024-04-16T02:19:34.463Z,98994.03
2024-04-16T02:24:41.402Z,98989.22
2024-04-16T02:29:45.670Z,98987.59
2024-04-16T02:34:52.487Z,98987.47
2024-04-16T02:39:59.330Z,98995.19
2024-04-16T02:45:03.581Z,98997.63
2024-04-16T02:50:08.945Z,99003.19
2024-04-16T02:55:15.849Z,98992.78
2024-04-16T03:00:21.945Z,98994.66
2024-04-16T03:05:26.191Z,98990.19
2024-04-16T03:10:33.092Z,98984.22
2024-04-16T03:15:37.404Z,98982.81
2024-04-16T03:20:41.655Z,98991.66
2024-04-16T03:25:48.591Z,98979.22
2024-04-16T03:30:52.950Z,98975.97
2024-04-16T03:35:57.674Z,98978.81
2024-04-16T03:41:04.716Z,98984.16
2024-04-16T03:46:09.046Z,98984.03
2024-04-16T03:51:13.298Z,98988.44
2024-04-16T03:56:20.386Z,98992.59
2024-04-16T04:01:25.064Z,98992.53
2024-04-16T04:06:29.791Z,98991.56
2024-04-16T04:11:36.641Z,98989.56
2024-04-16T04:16:41.024Z,98986.59
2024-04-16T04:21:45.256Z,98980.34
2024-04-16T04:26:52.243Z,98965.72
2024-04-16T04:31:56.624Z,98960.63
2024-04-16T04:37:02.436Z,98965.72
2024-04-16T04:42:10.054Z,98964.31
2024-04-16T04:47:14.478Z,98957.91
2024-04-16T04:52:18.692Z,98972.72
2024-04-16T04:57:25.773Z,98981.06
2024-04-16T05:02:30.247Z,98984.66
2024-04-16T05:07:34.692Z,98996.16
2024-04-16T05:12:41.618Z,99005.81
2024-04-16T05:17:46.542Z,99020.88
2024-04-16T05:22:51.160Z,99014.34
2024-04-16T05:27:58.152Z,99006.66
2024-04-16T05:33:02.464Z,98998.22
2024-04-16T05:38:07.110Z,99000.13
2024-04-16T05:43:14.023Z,98991.88
2024-04-16T05:48:18.524Z,98991.88
2024-04-16T05:53:22.753Z,98987.56
2024-04-16T05:58:29.661Z,98987.44
2024-04-16T06:03:34.576Z,98989.19
2024-04-16T06:08:38.837Z,98996.41
2024-04-16T06:13:47.984Z,98999.03
2024-04-16T06:18:54.691Z,99015.38
2024-04-16T06:23:59.073Z,99007.19
2024-04-16T06:29:06.126Z,99042.31
2024-04-16T06:34:10.418Z,99030.78
2024-04-16T06:39:14.888Z,99037.81
2024-04-16T06:44:22.081Z,99034.41
2024-04-16T06:49:26.437Z,99028.13
2024-04-16T06:54:30.621Z,99037.91
2024-04-16T06:59:37.519Z,99030.19
2024-04-16T07:04:41.816Z,99027.31
2024-04-16T07:09:46.448Z,99029.41
2024-04-16T07:14:53.359Z,99033.25
2024-04-16T07:19:58.217Z,99023.66
2024-04-16T07:25:02.669Z,99043.69
2024-04-16T07:30:10.222Z,99038.66
2024-04-16T07:35:14.579Z,99036.41
2024-04-16T07:40:19.013Z,99041.69
2024-04-16T07:45:25.818Z,99037.34
2024-04-16T07:50:30.091Z,99043.09
2024-04-16T07:55:34.467Z,99052.75
2024-04-16T08:00:42.049Z,99045.69
2024-04-16T08:05:48.993Z,99049.56
2024-04-16T08:10:53.591Z,99062.34
2024-04-16T08:16:00.567Z,99039.66
2024-04-16T08:21:05.478Z,99047.75
2024-04-16T08:26:12.691Z,99075.53
2024-04-16T08:31:20.336Z,99038.25
2024-04-16T08:36:24.635Z,99039.38
2024-04-16T08:41:28.956Z,99039.03
2024-04-16T08:46:37.249Z,99048.13
2024-04-16T08:51:42.447Z,99050.34
2024-04-16T08:56:48.307Z,99046.31
2024-04-16T09:01:56.509Z,99044.28
2024-04-16T09:07:01.145Z,99039.88
2024-04-16T09:12:06.068Z,99042.19
2024-04-16T09:17:17.310Z,99060.91
2024-04-16T09:22:26.061Z,99051.97
2024-04-16T09:27:30.866Z,99051.44
2024-04-16T09:32:37.866Z,99037.19
2024-04-16T09:37:44.198Z,99041.69
2024-04-16T09:42:50.147Z,99028.25
2024-04-16T09:47:58.861Z,99035.09
2024-04-16T09:53:05.615Z,99017.69
2024-04-16T09:58:12.597Z,99018.88
2024-04-16T10:03:20.998Z,98996.63
2024-04-16T10:08:25.902Z,98993.28
2024-04-16T10:13:31.921Z,98984.81
2024-04-16T10:18:38.811Z,98983.34
2024-04-16T10:23:43.123Z,98982.19
2024-04-16T10:28:58.658Z,98974.16
2024-04-16T10:34:05.802Z,98969.41
2024-04-16T10:39:14.301Z,98955.38
2024-04-16T10:44:18.731Z,98947.72
2024-04-16T10:49:28.589Z,98941.19
2024-04-16T10:54:32.990Z,98953.91
2024-04-16T10:59:37.156Z,98944.66
2024-04-16T11:04:44.105Z,98926.72
2024-04-16T11:09:48.619Z,98911.94
2024-04-16T11:14:53.601Z,98930.81
2024-04-16T11:20:00.946Z,98930.88
2024-04-16T11:25:06.831Z,98931.34
2024-04-16T11:30:14.974Z,98967.47
2024-04-16T11:35:25.421Z,98982.72
2024-04-16T11:40:29.876Z,98965.63
2024-04-16T11:45:34.670Z,98957.31
2024-04-16T11:50:41.625Z,98952.19
2024-04-16T11:55:47.054Z,98935.91
2024-04-16T12:00:51.516Z,98920.63
2024-04-16T12:05:58.425Z,98924.28
2024-04-16T12:11:05.594Z,98925.78
2024-04-16T12:16:10.423Z,98900.34
2024-04-16T12:21:17.441Z,98910.34
2024-04-16T12:26:21.838Z,98902.44
2024-04-16T12:31:26.264Z,98898.41
2024-04-16T12:36:33.540Z,98907.13
2024-04-16T12:41:37.873Z,98923.78
2024-04-16T12:46:42.208Z,98918.00
2024-04-16T12:51:49.164Z,98918.47
2024-04-16T12:56:54.216Z,98910.66
2024-04-16T13:01:58.698Z,98898.72
2024-04-16T13:07:07.368Z,98903.50
2024-04-16T13:12:12.839Z,98904.50
2024-04-16T13:17:17.124Z,98922.66
2024-04-16T13:22:24.225Z,98932.72
2024-04-16T13:27:28.899Z,98922.06
2024-04-16T13:32:33.310Z,98901.50
2024-04-16T13:37:40.312Z,98914.28
2024-04-16T13:42:46.232Z,98896.00
2024-04-16T13:47:50.642Z,98890.94
2024-04-16T13:52:57.818Z,98899.34
2024-04-16T13:58:03.161Z,98897.16
2024-04-16T14:03:08.252Z,98892.47
2024-04-16T14:08:15.625Z,98898.66
2024-04-16T14:13:22.741Z,98901.38
2024-04-16T14:18:27.764Z,98898.72
2024-04-16T14:23:37.069Z,98890.81
2024-04-16T14:28:43.955Z,98885.34
2024-04-16T14:33:49.813Z,98877.09
2024-04-16T14:38:57.235Z,98874.78
2024-04-16T14:44:02.055Z,98879.47
2024-04-16T14:49:07.930Z,98869.41
2024-04-16T14:54:15.539Z,98876.56
2024-04-16T14:59:20.282Z,98874.50
2024-04-16T15:04:25.669Z,98868.94
2024-04-16T15:09:32.979Z,98865.16
2024-04-16T15:14:37.837Z,98876.84
2024-04-16T15:19:42.698Z,98870.78
2024-04-16T15:24:50.191Z,98877.91
2024-04-16T15:29:55.004Z,98882.47
2024-04-16T15:34:59.866Z,98878.63
2024-04-16T15:40:13.806Z,98878.88
2024-04-16T15:45:25.341Z,98879.78
2024-04-16T15:50:29.697Z,98890.16
2024-04-16T15:55:36.694Z,98879.47
2024-04-16T16:00:44.967Z,98897.50
2024-04-16T16:05:50.046Z,98910.06
2024-04-16T16:10:57.207Z,98915.25
2024-04-16T16:16:01.562Z,98913.81
2024-04-16T16:21:08.551Z,98914.34
2024-04-16T16:26:17.467Z,98921.03
2024-04-16T16:31:22.244Z,98923.53
2024-04-16T16:36:26.506Z,98933.50
2024-04-16T16:41:33.794Z,98937.03
2024-04-16T16:46:38.230Z,98941.66
2024-04-16T16:51:42.532Z,98951.41
2024-04-16T16:56:49.824Z,98942.31
2024-04-16T17:01:54.134Z,98951.31
2024-04-16T17:06:58.495Z,98964.53
2024-04-16T17:12:05.263Z,98966.75
2024-04-16T17:17:09.669Z,98979.16
2024-04-16T17:22:14.517Z,98979.22
2024-04-16T17:27:21.461Z,98986.31
2024-04-16T17:32:25.950Z,98984.81
2024-04-16T17:37:30.275Z,98992.50
2024-04-16T17:42:37.141Z,99007.91
2024-04-16T17:47:42.201Z,99023.72
2024-04-16T17:52:46.985Z,99045.53
2024-04-16T17:57:53.951Z,99053.66
2024-04-16T18:02:58.311Z,99063.53
2024-04-16T18:08:04.968Z,99065.78
2024-04-16T18:13:11.954Z,99080.94
2024-04-16T18:18:16.893Z,99087.84
2024-04-16T18:23:21.358Z,99098.47
2024-04-16T18:28:28.315Z,99109.28
2024-04-16T18:33:32.830Z,99110.19
2024-04-16T18:38:37.909Z,99130.72
2024-04-16T18:43:44.866Z,99136.59
2024-04-16T18:48:49.240Z,99148.13
2024-04-16T18:53:53.571Z,99157.97
2024-04-16T18:59:02.094Z,99168.91
2024-04-16T19:04:06.383Z,99172.66
2024-04-16T19:09:10.874Z,99181.31
2024-04-16T19:14:17.607Z,99186.91
2024-04-16T19:19:21.977Z,99191.50
2024-04-16T19:24:26.138Z,99201.19
2024-04-16T19:29:33.609Z,99202.00
2024-04-16T19:34:38.142Z,99211.28
2024-04-16T19:39:42.449Z,99210.97
2024-04-16T19:44:49.340Z,99216.41
2024-04-16T19:49:53.622Z,99215.75
2024-04-16T19:54:58.308Z,99216.03
2024-04-16T20:00:05.864Z,99227.53
2024-04-16T20:05:10.238Z,99225.28
2024-04-16T20:10:14.473Z,99239.50
2024-04-16T20:15:21.319Z,99242.34
2024-04-16T20:20:25.560Z,99251.69
2024-04-16T20:25:29.813Z,99261.66
2024-04-16T20:30:37.230Z,99263.81
2024-04-16T20:35:41.558Z,99261.53
2024-04-16T20:40:45.878Z,99275.59
2024-04-16T20:45:53.397Z,99281.91
2024-04-16T20:51:03.700Z,99267.13
2024-04-16T20:56:10.503Z,99280.38
2024-04-16T21:01:17.447Z,99276.38
2024-04-16T21:06:21.692Z,99281.34
2024-04-16T21:11:26.087Z,99289.69
2024-04-16T21:16:33.032Z,99286.50
2024-04-16T21:21:37.387Z,99295.53
2024-04-16T21:26:41.678Z,99295.53
2024-04-16T21:31:48.592Z,99299.69
2024-04-16T21:36:52.997Z,99307.75
2024-04-16T21:41:57.351Z,99313.38
2024-04-16T21:47:04.382Z,99311.44
2024-04-16T21:52:08.993Z,99317.34
2024-04-16T21:57:13.344Z,99318.81
2024-04-16T22:02:20.156Z,99325.25
2024-04-16T22:07:24.496Z,99329.81
2024-04-16T22:12:28.764Z,99332.59
2024-04-16T22:17:35.716Z,99333.13
2024-04-16T22:22:40.276Z,99344.28
2024-04-16T22:27:45.622Z,99355.72
2024-04-16T22:32:52.714Z,99361.28
2024-04-16T22:37:57.120Z,99369.28
2024-04-16T22:43:01.419Z,99376.69
2024-04-16T22:48:09.416Z,99374.03
2024-04-16T22:53:14.599Z,99391.25
2024-04-16T22:58:20.459Z,99393.97
2024-04-16T23:03:27.593Z,99396.19
2024-04-16T23:08:32.007Z,99392.72
2024-04-16T23:13:36.399Z,99396.75
2024-04-16T23:18:43.231Z,99405.63
2024-04-16T23:23:47.524Z,99406.59
2024-04-16T23:28:51.865Z,99407.75
2024-04-16T23:33:58.902Z,99414.00
2024-04-16T23:39:03.205Z,99422.22
2024-04-16T23:44:07.525Z,99414.66
2024-04-16T23:49:14.461Z,99415.31
2024-04-16T23:54:18.862Z,99418.56
2024-04-16T23:59:23.018Z,99413.34
